Terminal Aerodrome Forecast
Issued by NWS Indianapolis, IN

Home | Current Version | Previous Version | Text Only | Print | Product List | Glossary On
Versions: 1 2 3 4 5 6 7 8 9 10 11 12 13 14 15 16 17 18 19 20 21 22 23
937
FTUS43 KIND 170201 AAA
TAFIND
TAF AMD
KIND 170201Z 1702/1806 19008KT P6SM FEW110 BKN130
     FM170500 17004KT P6SM VCTS BKN120CB
     FM171300 20006KT P6SM -SHRA VCTS OVC030CB
     FM171800 23009KT P6SM -SHRA BKN090=

USA.gov is the U.S. government's official web portal to all federal, state and local government web resources and services.